Blocker, OK (74529)

3:44 AM CDT on May 07, 2015 (GMT -0500)
Arrowhead Estates | | Change Station
CLOSE
Current Station
Personal Weather Station
Location: Canadian, OK
Elevation: 682 ft
Nearby Weather Stations

Elev 682 ft 35.17 °N, 95.60 °W | Updated 3 minutes ago

Overcast
Overcast
71.3 °F
Feels Like 70 °F
N
3.0
Wind Variable Wind from SSW
Gusts 13.0 mph

Today
High -- | Low -- °F
--% Chance of Precip.
Yesterday
High -- | Low -- °F
Precip. -- in
6:25 AM 8:12 PM
Waning Gibbous, 89% visible
Pressure 29.89 in
Visibility 10.0 miles
Clouds Few 1900 ft
Few 6000 ft
Mostly Cloudy 7500 ft
Heat Index 70 °F
Dew Point 66 °F
Humidity 84%
Rainfall 0.00 in
Snow Depth Not available.
UV 0.0 out of 12
Pollen 1.90 out of 12
Air Quality Not available.
Flu Activity Local Activity
METAR KMLC 070753Z AUTO 17007G15KT 10SM FEW019 FEW060 BKN075 23/18 A2992 RMK AO2 LTG DSNT NW SLP122 T02280183

More Conditions Fewer Conditions

Pressure 29.89 in
Visibility 10.0 miles
Clouds Few 1900 ft
Few 6000 ft
Mostly Cloudy 7500 ft
Heat Index 70 °F
Dew Point 66 °F
Humidity 84%
Rainfall 0.00 in
Snow Depth Not available.
UV 0.0 out of 12
Pollen 1.90 out of 12
Air Quality Not available.
Flu Activity Local Activity
METAR KMLC 070753Z AUTO 17007G15KT 10SM FEW019 FEW060 BKN075 23/18 A2992 RMK AO2 LTG DSNT NW SLP122 T02280183

More Conditions Fewer Conditions

Nowcast | as of 2:19 am CDT on May 7, 2015

At 2:15 am...scattered showers and thunderstorms continued west of line from Bartlesville...to Muskogee...to McAlester moving northeast at 30 mph. Through 4 am...scattered showers and thunderstorms will continue across eastern Oklahoma...primarily west of a line from Nowata to Antlers. Brief heavy rain and small hail are possible with the strongest storms.

×

10-Day Weather Forecast

Almanac

Astronomy

May. 07, 2015 Rise Set
Actual Time
Civil Twilight
Nautical Twilight
Astronomical Twilight
Moon
Length of Visible Light
Length of Day
Tomorrow will be .
, % of the Moon is Illuminated

Today's Extremes

State Highs State Lows

Community

WunderPhotos

Upload Photos

1,819,126 photos uploaded!

WunderBlogs® & News

Nearby

Air Quality

  Air Quality AQ Index Pollutant
Not available.

Snow Depth

Station Depth Elevation

Earthquake Activity

City Distance Mag. Time & Date
Minimum magnitude displayed is 2.5.

Coastal Water Temperatures

Place Temperature

Stations

Nearby Weather Stations

Station Location Temp. Windchill Dew Point Humidity Wind Precip. Elev Updated Type